sensor_id;sensor_type;location;lat;lon;timestamp;P1;durP1;ratioP1;P2;durP2;ratioP2
26702;SDS011;14316;51.074;3.704;2023-07-29T00:01:12;3.95;;;3.45;;
26702;SDS011;14316;51.074;3.704;2023-07-29T00:03:38;3.55;;;3.25;;
26702;SDS011;14316;51.074;3.704;2023-07-29T00:06:03;4.93;;;3.22;;
26702;SDS011;14316;51.074;3.704;2023-07-29T00:08:29;5.28;;;3.50;;
26702;SDS011;14316;51.074;3.704;2023-07-29T00:10:55;4.60;;;3.60;;
26702;SDS011;14316;51.074;3.704;2023-07-29T00:13:21;4.45;;;3.95;;
26702;SDS011;14316;51.074;3.704;2023-07-29T00:15:47;4.68;;;3.88;;
26702;SDS011;14316;51.074;3.704;2023-07-29T00:18:12;6.07;;;3.90;;
26702;SDS011;14316;51.074;3.704;2023-07-29T00:20:39;4.18;;;3.85;;
26702;SDS011;14316;51.074;3.704;2023-07-29T00:23:04;6.78;;;4.20;;
26702;SDS011;14316;51.074;3.704;2023-07-29T00:25:30;5.55;;;4.35;;
26702;SDS011;14316;51.074;3.704;2023-07-29T00:27:56;5.43;;;4.03;;
26702;SDS011;14316;51.074;3.704;2023-07-29T00:30:23;5.75;;;3.58;;
26702;SDS011;14316;51.074;3.704;2023-07-29T00:32:49;7.88;;;4.25;;
26702;SDS011;14316;51.074;3.704;2023-07-29T00:35:15;5.00;;;3.47;;
26702;SDS011;14316;51.074;3.704;2023-07-29T00:37:40;5.45;;;3.55;;
26702;SDS011;14316;51.074;3.704;2023-07-29T00:40:09;4.97;;;3.80;;
26702;SDS011;14316;51.074;3.704;2023-07-29T00:42:45;6.03;;;3.95;;
26702;SDS011;14316;51.074;3.704;2023-07-29T00:45:11;5.90;;;4.20;;
26702;SDS011;14316;51.074;3.704;2023-07-29T00:47:37;6.00;;;3.72;;
26702;SDS011;14316;51.074;3.704;2023-07-29T00:50:04;4.72;;;3.67;;
26702;SDS011;14316;51.074;3.704;2023-07-29T00:52:31;5.65;;;3.92;;
26702;SDS011;14316;51.074;3.704;2023-07-29T00:54:57;5.78;;;4.00;;
26702;SDS011;14316;51.074;3.704;2023-07-29T00:57:23;5.28;;;4.03;;
26702;SDS011;14316;51.074;3.704;2023-07-29T00:59:50;4.78;;;4.22;;
26702;SDS011;14316;51.074;3.704;2023-07-29T01:02:16;5.00;;;4.38;;
26702;SDS011;14316;51.074;3.704;2023-07-29T01:04:42;5.00;;;4.50;;
26702;SDS011;14316;51.074;3.704;2023-07-29T01:12:21;6.10;;;5.50;;
26702;SDS011;14316;51.074;3.704;2023-07-29T01:15:15;7.47;;;6.70;;
26702;SDS011;14316;51.074;3.704;2023-07-29T01:17:49;11.63;;;8.95;;
26702;SDS011;14316;51.074;3.704;2023-07-29T01:20:20;12.82;;;9.35;;
26702;SDS011;14316;51.074;3.704;2023-07-29T01:22:49;11.10;;;8.00;;
26702;SDS011;14316;51.074;3.704;2023-07-29T01:25:14;9.80;;;6.68;;
26702;SDS011;14316;51.074;3.704;2023-07-29T01:27:41;6.50;;;5.40;;
26702;SDS011;14316;51.074;3.704;2023-07-29T01:30:08;7.03;;;4.78;;
26702;SDS011;14316;51.074;3.704;2023-07-29T01:37:41;5.00;;;4.38;;
26702;SDS011;14316;51.074;3.704;2023-07-29T01:40:09;7.93;;;4.28;;
26702;SDS011;14316;51.074;3.704;2023-07-29T01:42:36;4.72;;;4.25;;
26702;SDS011;14316;51.074;3.704;2023-07-29T01:45:02;5.20;;;4.50;;
26702;SDS011;14316;51.074;3.704;2023-07-29T01:47:29;6.13;;;4.78;;
26702;SDS011;14316;51.074;3.704;2023-07-29T01:49:55;5.63;;;4.38;;
26702;SDS011;14316;51.074;3.704;2023-07-29T01:52:22;5.70;;;4.38;;
26702;SDS011;14316;51.074;3.704;2023-07-29T01:54:48;4.85;;;4.28;;
26702;SDS011;14316;51.074;3.704;2023-07-29T01:57:14;5.47;;;4.35;;
26702;SDS011;14316;51.074;3.704;2023-07-29T01:59:40;6.65;;;4.30;;
26702;SDS011;14316;51.074;3.704;2023-07-29T02:02:06;5.72;;;4.20;;
26702;SDS011;14316;51.074;3.704;2023-07-29T02:04:32;5.40;;;3.88;;
26702;SDS011;14316;51.074;3.704;2023-07-29T02:06:58;6.95;;;4.40;;
26702;SDS011;14316;51.074;3.704;2023-07-29T02:09:24;5.28;;;4.22;;
26702;SDS011;14316;51.074;3.704;2023-07-29T02:11:51;5.40;;;3.97;;
26702;SDS011;14316;51.074;3.704;2023-07-29T02:14:16;5.60;;;4.45;;
26702;SDS011;14316;51.074;3.704;2023-07-29T02:16:43;6.97;;;4.38;;
26702;SDS011;14316;51.074;3.704;2023-07-29T02:19:09;5.57;;;4.30;;
26702;SDS011;14316;51.074;3.704;2023-07-29T02:21:35;9.98;;;4.50;;
26702;SDS011;14316;51.074;3.704;2023-07-29T02:24:01;7.50;;;4.53;;
26702;SDS011;14316;51.074;3.704;2023-07-29T02:26:27;5.50;;;4.35;;
26702;SDS011;14316;51.074;3.704;2023-07-29T02:28:54;6.63;;;4.50;;
26702;SDS011;14316;51.074;3.704;2023-07-29T02:31:21;5.35;;;4.35;;
26702;SDS011;14316;51.074;3.704;2023-07-29T02:33:48;8.32;;;5.10;;
26702;SDS011;14316;51.074;3.704;2023-07-29T02:36:15;6.32;;;4.40;;
26702;SDS011;14316;51.074;3.704;2023-07-29T02:38:41;7.72;;;4.25;;
26702;SDS011;14316;51.074;3.704;2023-07-29T02:41:09;7.85;;;4.35;;
26702;SDS011;14316;51.074;3.704;2023-07-29T02:43:37;5.22;;;4.32;;
26702;SDS011;14316;51.074;3.704;2023-07-29T02:46:03;5.45;;;4.70;;
26702;SDS011;14316;51.074;3.704;2023-07-29T02:48:29;5.82;;;4.30;;
26702;SDS011;14316;51.074;3.704;2023-07-29T02:50:55;5.00;;;4.38;;
26702;SDS011;14316;51.074;3.704;2023-07-29T02:53:22;4.88;;;4.38;;
26702;SDS011;14316;51.074;3.704;2023-07-29T02:55:48;6.10;;;4.30;;
26702;SDS011;14316;51.074;3.704;2023-07-29T02:58:14;4.45;;;3.85;;
26702;SDS011;14316;51.074;3.704;2023-07-29T03:00:40;6.78;;;4.50;;
26702;SDS011;14316;51.074;3.704;2023-07-29T03:03:07;5.45;;;3.92;;
26702;SDS011;14316;51.074;3.704;2023-07-29T03:05:34;6.13;;;4.28;;
26702;SDS011;14316;51.074;3.704;2023-07-29T03:08:00;4.82;;;3.83;;
26702;SDS011;14316;51.074;3.704;2023-07-29T03:10:26;5.40;;;3.90;;
26702;SDS011;14316;51.074;3.704;2023-07-29T03:12:54;4.10;;;3.65;;
26702;SDS011;14316;51.074;3.704;2023-07-29T03:15:24;4.53;;;3.92;;
26702;SDS011;14316;51.074;3.704;2023-07-29T03:17:51;5.63;;;4.00;;
26702;SDS011;14316;51.074;3.704;2023-07-29T03:20:18;5.90;;;4.38;;
26702;SDS011;14316;51.074;3.704;2023-07-29T03:22:44;6.82;;;4.75;;
26702;SDS011;14316;51.074;3.704;2023-07-29T03:25:11;6.18;;;4.50;;
26702;SDS011;14316;51.074;3.704;2023-07-29T03:27:37;6.00;;;4.32;;
26702;SDS011;14316;51.074;3.704;2023-07-29T03:30:05;5.28;;;3.75;;
26702;SDS011;14316;51.074;3.704;2023-07-29T03:32:32;5.63;;;4.10;;
26702;SDS011;14316;51.074;3.704;2023-07-29T03:34:58;5.75;;;3.90;;
26702;SDS011;14316;51.074;3.704;2023-07-29T03:37:24;6.68;;;4.78;;
26702;SDS011;14316;51.074;3.704;2023-07-29T03:39:50;5.13;;;4.25;;
26702;SDS011;14316;51.074;3.704;2023-07-29T03:42:17;5.75;;;4.25;;
26702;SDS011;14316;51.074;3.704;2023-07-29T03:44:45;5.97;;;4.43;;
26702;SDS011;14316;51.074;3.704;2023-07-29T03:47:10;5.10;;;4.60;;
26702;SDS011;14316;51.074;3.704;2023-07-29T03:49:36;6.43;;;4.40;;
26702;SDS011;14316;51.074;3.704;2023-07-29T03:52:02;5.15;;;4.00;;
26702;SDS011;14316;51.074;3.704;2023-07-29T03:54:29;5.55;;;3.85;;
26702;SDS011;14316;51.074;3.704;2023-07-29T03:56:55;7.13;;;4.40;;
26702;SDS011;14316;51.074;3.704;2023-07-29T03:59:21;5.63;;;4.45;;
26702;SDS011;14316;51.074;3.704;2023-07-29T04:01:48;9.20;;;4.18;;
26702;SDS011;14316;51.074;3.704;2023-07-29T04:04:13;5.05;;;4.13;;
26702;SDS011;14316;51.074;3.704;2023-07-29T04:06:39;4.88;;;3.90;;
26702;SDS011;14316;51.074;3.704;2023-07-29T04:09:05;5.63;;;4.20;;
26702;SDS011;14316;51.074;3.704;2023-07-29T04:11:32;5.10;;;4.20;;
26702;SDS011;14316;51.074;3.704;2023-07-29T04:13:58;6.32;;;4.10;;
26702;SDS011;14316;51.074;3.704;2023-07-29T04:16:23;4.68;;;4.15;;
26702;SDS011;14316;51.074;3.704;2023-07-29T04:18:50;5.32;;;4.13;;
26702;SDS011;14316;51.074;3.704;2023-07-29T04:21:16;4.70;;;3.78;;
26702;SDS011;14316;51.074;3.704;2023-07-29T04:23:41;5.97;;;4.03;;
26702;SDS011;14316;51.074;3.704;2023-07-29T04:26:07;4.90;;;4.30;;
26702;SDS011;14316;51.074;3.704;2023-07-29T04:28:33;6.30;;;4.20;;
26702;SDS011;14316;51.074;3.704;2023-07-29T04:31:00;6.03;;;3.97;;
26702;SDS011;14316;51.074;3.704;2023-07-29T04:33:26;4.90;;;4.35;;
26702;SDS011;14316;51.074;3.704;2023-07-29T04:35:51;5.15;;;3.88;;
26702;SDS011;14316;51.074;3.704;2023-07-29T04:38:17;5.97;;;4.18;;
26702;SDS011;14316;51.074;3.704;2023-07-29T04:40:43;5.47;;;4.45;;
26702;SDS011;14316;51.074;3.704;2023-07-29T04:43:10;5.78;;;4.30;;
26702;SDS011;14316;51.074;3.704;2023-07-29T04:45:41;5.35;;;3.97;;
26702;SDS011;14316;51.074;3.704;2023-07-29T04:48:08;4.32;;;3.85;;
26702;SDS011;14316;51.074;3.704;2023-07-29T04:50:34;5.38;;;4.32;;
26702;SDS011;14316;51.074;3.704;2023-07-29T04:53:00;4.57;;;4.05;;
26702;SDS011;14316;51.074;3.704;2023-07-29T04:55:27;5.97;;;4.47;;
26702;SDS011;14316;51.074;3.704;2023-07-29T04:57:52;7.00;;;4.30;;
26702;SDS011;14316;51.074;3.704;2023-07-29T05:00:19;5.45;;;4.53;;
26702;SDS011;14316;51.074;3.704;2023-07-29T05:02:45;5.80;;;4.20;;
26702;SDS011;14316;51.074;3.704;2023-07-29T05:05:11;4.57;;;3.88;;
26702;SDS011;14316;51.074;3.704;2023-07-29T05:07:38;5.68;;;4.38;;
26702;SDS011;14316;51.074;3.704;2023-07-29T05:10:04;6.07;;;4.13;;
26702;SDS011;14316;51.074;3.704;2023-07-29T05:12:30;5.80;;;4.20;;
26702;SDS011;14316;51.074;3.704;2023-07-29T05:14:58;8.68;;;4.30;;
26702;SDS011;14316;51.074;3.704;2023-07-29T05:17:23;5.18;;;3.97;;
26702;SDS011;14316;51.074;3.704;2023-07-29T05:19:49;5.45;;;3.55;;
26702;SDS011;14316;51.074;3.704;2023-07-29T05:22:15;5.32;;;4.00;;
26702;SDS011;14316;51.074;3.704;2023-07-29T05:24:41;5.88;;;3.90;;
26702;SDS011;14316;51.074;3.704;2023-07-29T05:27:07;3.97;;;3.22;;
26702;SDS011;14316;51.074;3.704;2023-07-29T05:29:33;4.63;;;3.22;;
26702;SDS011;14316;51.074;3.704;2023-07-29T05:32:00;7.68;;;3.78;;
26702;SDS011;14316;51.074;3.704;2023-07-29T05:34:26;4.47;;;3.13;;
26702;SDS011;14316;51.074;3.704;2023-07-29T05:36:52;3.45;;;3.03;;
26702;SDS011;14316;51.074;3.704;2023-07-29T05:39:18;4.22;;;3.15;;
26702;SDS011;14316;51.074;3.704;2023-07-29T05:41:44;3.88;;;3.00;;
26702;SDS011;14316;51.074;3.704;2023-07-29T05:44:11;5.88;;;3.30;;
26702;SDS011;14316;51.074;3.704;2023-07-29T05:46:37;4.35;;;2.95;;
26702;SDS011;14316;51.074;3.704;2023-07-29T05:49:03;4.30;;;3.00;;
26702;SDS011;14316;51.074;3.704;2023-07-29T05:51:29;4.32;;;2.88;;
26702;SDS011;14316;51.074;3.704;2023-07-29T05:53:54;4.30;;;3.25;;
26702;SDS011;14316;51.074;3.704;2023-07-29T05:56:21;4.95;;;2.65;;
26702;SDS011;14316;51.074;3.704;2023-07-29T05:58:47;5.05;;;2.95;;
26702;SDS011;14316;51.074;3.704;2023-07-29T06:01:13;6.38;;;2.83;;
26702;SDS011;14316;51.074;3.704;2023-07-29T06:03:39;6.10;;;2.95;;
26702;SDS011;14316;51.074;3.704;2023-07-29T06:06:04;4.32;;;3.00;;
26702;SDS011;14316;51.074;3.704;2023-07-29T06:08:31;4.50;;;3.00;;
26702;SDS011;14316;51.074;3.704;2023-07-29T06:10:59;3.85;;;2.67;;
26702;SDS011;14316;51.074;3.704;2023-07-29T06:13:25;3.42;;;2.92;;
26702;SDS011;14316;51.074;3.704;2023-07-29T06:15:51;4.30;;;3.25;;
26702;SDS011;14316;51.074;3.704;2023-07-29T06:18:17;4.70;;;2.90;;
26702;SDS011;14316;51.074;3.704;2023-07-29T06:20:44;3.70;;;3.10;;
26702;SDS011;14316;51.074;3.704;2023-07-29T06:23:09;4.93;;;2.88;;
26702;SDS011;14316;51.074;3.704;2023-07-29T06:25:35;3.17;;;2.75;;
26702;SDS011;14316;51.074;3.704;2023-07-29T06:28:01;4.35;;;3.33;;
26702;SDS011;14316;51.074;3.704;2023-07-29T06:30:27;3.72;;;2.70;;
26702;SDS011;14316;51.074;3.704;2023-07-29T06:32:54;5.60;;;3.25;;
26702;SDS011;14316;51.074;3.704;2023-07-29T06:35:20;7.07;;;2.83;;
26702;SDS011;14316;51.074;3.704;2023-07-29T06:37:46;3.92;;;2.55;;
26702;SDS011;14316;51.074;3.704;2023-07-29T06:40:12;3.88;;;2.40;;
26702;SDS011;14316;51.074;3.704;2023-07-29T06:42:38;4.03;;;2.65;;
26702;SDS011;14316;51.074;3.704;2023-07-29T06:45:05;3.47;;;2.50;;
26702;SDS011;14316;51.074;3.704;2023-07-29T06:47:31;4.38;;;2.67;;
26702;SDS011;14316;51.074;3.704;2023-07-29T06:49:58;3.30;;;2.20;;
26702;SDS011;14316;51.074;3.704;2023-07-29T06:52:23;3.08;;;2.30;;
26702;SDS011;14316;51.074;3.704;2023-07-29T06:54:49;5.60;;;2.45;;
26702;SDS011;14316;51.074;3.704;2023-07-29T06:57:16;4.60;;;2.50;;
26702;SDS011;14316;51.074;3.704;2023-07-29T06:59:42;4.75;;;2.75;;
26702;SDS011;14316;51.074;3.704;2023-07-29T07:02:07;3.15;;;2.38;;
26702;SDS011;14316;51.074;3.704;2023-07-29T07:04:33;3.92;;;2.67;;
26702;SDS011;14316;51.074;3.704;2023-07-29T07:06:59;3.35;;;2.50;;
26702;SDS011;14316;51.074;3.704;2023-07-29T07:09:26;2.90;;;2.50;;
26702;SDS011;14316;51.074;3.704;2023-07-29T07:11:52;2.83;;;2.40;;
26702;SDS011;14316;51.074;3.704;2023-07-29T07:14:18;4.28;;;2.45;;
26702;SDS011;14316;51.074;3.704;2023-07-29T07:16:43;4.05;;;2.35;;
26702;SDS011;14316;51.074;3.704;2023-07-29T07:19:10;3.83;;;2.50;;
26702;SDS011;14316;51.074;3.704;2023-07-29T07:21:37;3.08;;;2.33;;
26702;SDS011;14316;51.074;3.704;2023-07-29T07:24:02;4.07;;;2.88;;
26702;SDS011;14316;51.074;3.704;2023-07-29T07:26:28;4.32;;;2.70;;
26702;SDS011;14316;51.074;3.704;2023-07-29T07:28:54;4.70;;;2.35;;
26702;SDS011;14316;51.074;3.704;2023-07-29T07:31:20;2.67;;;2.40;;
26702;SDS011;14316;51.074;3.704;2023-07-29T07:33:46;2.80;;;2.15;;
26702;SDS011;14316;51.074;3.704;2023-07-29T07:36:12;2.97;;;2.50;;
26702;SDS011;14316;51.074;3.704;2023-07-29T07:38:37;4.28;;;2.25;;
26702;SDS011;14316;51.074;3.704;2023-07-29T07:41:03;3.03;;;2.20;;
26702;SDS011;14316;51.074;3.704;2023-07-29T07:43:29;2.83;;;2.30;;
26702;SDS011;14316;51.074;3.704;2023-07-29T07:46:00;2.38;;;2.17;;
26702;SDS011;14316;51.074;3.704;2023-07-29T07:48:27;2.47;;;2.10;;
26702;SDS011;14316;51.074;3.704;2023-07-29T07:50:53;4.90;;;2.10;;
26702;SDS011;14316;51.074;3.704;2023-07-29T07:53:19;3.15;;;2.00;;
26702;SDS011;14316;51.074;3.704;2023-07-29T07:55:45;4.30;;;1.98;;
26702;SDS011;14316;51.074;3.704;2023-07-29T07:58:12;2.90;;;1.95;;
26702;SDS011;14316;51.074;3.704;2023-07-29T08:00:38;2.85;;;2.00;;
26702;SDS011;14316;51.074;3.704;2023-07-29T08:03:04;2.58;;;1.88;;
26702;SDS011;14316;51.074;3.704;2023-07-29T08:05:30;3.35;;;2.38;;
26702;SDS011;14316;51.074;3.704;2023-07-29T08:07:57;1.67;;;1.40;;
26702;SDS011;14316;51.074;3.704;2023-07-29T08:10:24;4.40;;;2.28;;
26702;SDS011;14316;51.074;3.704;2023-07-29T08:12:49;3.40;;;1.98;;
26702;SDS011;14316;51.074;3.704;2023-07-29T08:15:15;2.22;;;2.03;;
26702;SDS011;14316;51.074;3.704;2023-07-29T08:17:41;3.58;;;2.60;;
26702;SDS011;14316;51.074;3.704;2023-07-29T08:20:07;3.70;;;2.75;;
26702;SDS011;14316;51.074;3.704;2023-07-29T08:22:35;3.55;;;2.20;;
26702;SDS011;14316;51.074;3.704;2023-07-29T08:25:00;3.90;;;2.47;;
26702;SDS011;14316;51.074;3.704;2023-07-29T08:27:26;5.80;;;2.60;;
26702;SDS011;14316;51.074;3.704;2023-07-29T08:29:53;3.58;;;2.72;;
26702;SDS011;14316;51.074;3.704;2023-07-29T08:32:19;3.30;;;2.63;;
26702;SDS011;14316;51.074;3.704;2023-07-29T08:34:45;4.25;;;2.50;;
26702;SDS011;14316;51.074;3.704;2023-07-29T08:37:11;2.65;;;2.30;;
26702;SDS011;14316;51.074;3.704;2023-07-29T08:39:37;3.40;;;2.60;;
26702;SDS011;14316;51.074;3.704;2023-07-29T08:42:07;3.08;;;2.42;;
26702;SDS011;14316;51.074;3.704;2023-07-29T08:44:40;4.13;;;2.58;;
26702;SDS011;14316;51.074;3.704;2023-07-29T08:47:08;3.55;;;2.38;;
26702;SDS011;14316;51.074;3.704;2023-07-29T08:49:34;4.00;;;2.63;;
26702;SDS011;14316;51.074;3.704;2023-07-29T08:52:01;2.50;;;2.22;;
26702;SDS011;14316;51.074;3.704;2023-07-29T08:54:28;3.30;;;2.80;;
26702;SDS011;14316;51.074;3.704;2023-07-29T08:56:54;2.67;;;2.38;;
26702;SDS011;14316;51.074;3.704;2023-07-29T08:59:22;3.70;;;2.58;;
26702;SDS011;14316;51.074;3.704;2023-07-29T09:01:48;5.80;;;2.22;;
26702;SDS011;14316;51.074;3.704;2023-07-29T09:04:14;3.13;;;2.20;;
26702;SDS011;14316;51.074;3.704;2023-07-29T09:06:40;3.40;;;2.30;;
26702;SDS011;14316;51.074;3.704;2023-07-29T09:09:09;2.58;;;2.35;;
26702;SDS011;14316;51.074;3.704;2023-07-29T09:11:36;3.22;;;2.50;;
26702;SDS011;14316;51.074;3.704;2023-07-29T09:14:02;3.13;;;2.70;;
26702;SDS011;14316;51.074;3.704;2023-07-29T09:16:28;4.57;;;2.97;;
26702;SDS011;14316;51.074;3.704;2023-07-29T09:18:54;7.03;;;3.08;;
26702;SDS011;14316;51.074;3.704;2023-07-29T09:21:24;4.35;;;3.17;;
26702;SDS011;14316;51.074;3.704;2023-07-29T09:23:52;3.42;;;3.10;;
26702;SDS011;14316;51.074;3.704;2023-07-29T09:28:56;5.57;;;3.10;;
26702;SDS011;14316;51.074;3.704;2023-07-29T09:31:24;4.47;;;3.10;;
26702;SDS011;14316;51.074;3.704;2023-07-29T09:33:58;6.57;;;3.97;;
26702;SDS011;14316;51.074;3.704;2023-07-29T09:36:26;7.82;;;3.83;;
26702;SDS011;14316;51.074;3.704;2023-07-29T09:38:53;3.88;;;3.47;;
26702;SDS011;14316;51.074;3.704;2023-07-29T09:41:21;5.90;;;3.90;;
26702;SDS011;14316;51.074;3.704;2023-07-29T09:43:51;4.03;;;3.60;;
26702;SDS011;14316;51.074;3.704;2023-07-29T09:46:23;4.45;;;3.97;;
26702;SDS011;14316;51.074;3.704;2023-07-29T09:48:52;4.97;;;4.30;;
26702;SDS011;14316;51.074;3.704;2023-07-29T09:51:19;4.65;;;4.25;;
26702;SDS011;14316;51.074;3.704;2023-07-29T09:53:46;6.70;;;5.20;;
26702;SDS011;14316;51.074;3.704;2023-07-29T09:56:16;6.50;;;5.30;;
26702;SDS011;14316;51.074;3.704;2023-07-29T09:58:42;5.80;;;5.20;;
26702;SDS011;14316;51.074;3.704;2023-07-29T10:01:10;7.18;;;5.25;;
26702;SDS011;14316;51.074;3.704;2023-07-29T10:03:36;5.82;;;5.32;;
26702;SDS011;14316;51.074;3.704;2023-07-29T10:06:03;6.43;;;5.85;;
26702;SDS011;14316;51.074;3.704;2023-07-29T10:08:30;5.93;;;5.20;;
26702;SDS011;14316;51.074;3.704;2023-07-29T10:11:06;5.07;;;4.68;;
26702;SDS011;14316;51.074;3.704;2023-07-29T10:13:33;6.70;;;5.47;;
26702;SDS011;14316;51.074;3.704;2023-07-29T10:16:00;5.13;;;4.38;;
26702;SDS011;14316;51.074;3.704;2023-07-29T10:18:30;4.75;;;4.03;;
26702;SDS011;14316;51.074;3.704;2023-07-29T10:20:57;5.88;;;4.00;;
26702;SDS011;14316;51.074;3.704;2023-07-29T10:23:25;4.07;;;3.65;;
26702;SDS011;14316;51.074;3.704;2023-07-29T10:25:55;4.00;;;3.58;;
26702;SDS011;14316;51.074;3.704;2023-07-29T10:28:30;4.50;;;4.07;;
26702;SDS011;14316;51.074;3.704;2023-07-29T10:30:57;4.53;;;4.13;;
26702;SDS011;14316;51.074;3.704;2023-07-29T10:33:26;5.53;;;5.00;;
26702;SDS011;14316;51.074;3.704;2023-07-29T10:35:52;5.63;;;4.63;;
26702;SDS011;14316;51.074;3.704;2023-07-29T10:38:19;8.40;;;4.63;;
26702;SDS011;14316;51.074;3.704;2023-07-29T10:40:55;15.02;;;6.93;;
26702;SDS011;14316;51.074;3.704;2023-07-29T10:43:26;10.27;;;6.28;;
26702;SDS011;14316;51.074;3.704;2023-07-29T10:46:21;14.73;;;4.75;;
26702;SDS011;14316;51.074;3.704;2023-07-29T10:48:53;5.13;;;3.05;;
26702;SDS011;14316;51.074;3.704;2023-07-29T10:51:29;3.72;;;2.83;;
26702;SDS011;14316;51.074;3.704;2023-07-29T10:53:59;4.20;;;3.03;;
26702;SDS011;14316;51.074;3.704;2023-07-29T10:56:27;3.63;;;2.78;;
26702;SDS011;14316;51.074;3.704;2023-07-29T10:58:54;4.75;;;3.08;;
26702;SDS011;14316;51.074;3.704;2023-07-29T11:01:29;3.13;;;2.83;;
26702;SDS011;14316;51.074;3.704;2023-07-29T11:09:41;5.32;;;3.10;;
26702;SDS011;14316;51.074;3.704;2023-07-29T11:15:12;3.28;;;2.85;;
26702;SDS011;14316;51.074;3.704;2023-07-29T11:20:23;3.28;;;2.97;;
26702;SDS011;14316;51.074;3.704;2023-07-29T11:22:59;3.35;;;3.00;;
26702;SDS011;14316;51.074;3.704;2023-07-29T11:25:27;3.75;;;3.45;;
26702;SDS011;14316;51.074;3.704;2023-07-29T11:27:55;4.60;;;3.67;;
26702;SDS011;14316;51.074;3.704;2023-07-29T11:30:22;3.65;;;3.30;;
26702;SDS011;14316;51.074;3.704;2023-07-29T11:32:51;3.63;;;3.03;;
26702;SDS011;14316;51.074;3.704;2023-07-29T11:35:19;5.60;;;4.50;;
26702;SDS011;14316;51.074;3.704;2023-07-29T11:37:46;5.65;;;3.20;;
26702;SDS011;14316;51.074;3.704;2023-07-29T11:40:19;2.90;;;2.70;;
26702;SDS011;14316;51.074;3.704;2023-07-29T11:42:47;5.60;;;2.95;;
26702;SDS011;14316;51.074;3.704;2023-07-29T11:45:14;2.80;;;2.60;;
26702;SDS011;14316;51.074;3.704;2023-07-29T11:47:40;3.83;;;2.72;;
26702;SDS011;14316;51.074;3.704;2023-07-29T11:50:06;2.88;;;2.40;;
26702;SDS011;14316;51.074;3.704;2023-07-29T11:52:37;5.90;;;2.03;;
26702;SDS011;14316;51.074;3.704;2023-07-29T11:55:04;2.90;;;2.40;;
26702;SDS011;14316;51.074;3.704;2023-07-29T11:57:31;2.95;;;2.50;;
26702;SDS011;14316;51.074;3.704;2023-07-29T11:59:59;3.40;;;2.38;;
26702;SDS011;14316;51.074;3.704;2023-07-29T12:02:31;3.33;;;2.47;;
26702;SDS011;14316;51.074;3.704;2023-07-29T12:04:58;2.90;;;2.60;;
26702;SDS011;14316;51.074;3.704;2023-07-29T12:07:24;2.20;;;1.92;;
26702;SDS011;14316;51.074;3.704;2023-07-29T12:09:50;2.30;;;1.65;;
26702;SDS011;14316;51.074;3.704;2023-07-29T12:12:17;2.67;;;2.03;;
26702;SDS011;14316;51.074;3.704;2023-07-29T12:14:46;2.65;;;1.80;;
26702;SDS011;14316;51.074;3.704;2023-07-29T12:17:12;3.22;;;1.50;;
26702;SDS011;14316;51.074;3.704;2023-07-29T12:19:38;2.33;;;1.60;;
26702;SDS011;14316;51.074;3.704;2023-07-29T12:22:06;2.83;;;1.65;;
26702;SDS011;14316;51.074;3.704;2023-07-29T12:24:33;2.00;;;1.70;;
26702;SDS011;14316;51.074;3.704;2023-07-29T12:29:42;1.65;;;1.50;;
26702;SDS011;14316;51.074;3.704;2023-07-29T12:32:11;3.08;;;1.45;;
26702;SDS011;14316;51.074;3.704;2023-07-29T12:34:38;1.65;;;1.55;;
26702;SDS011;14316;51.074;3.704;2023-07-29T12:37:04;1.65;;;1.30;;
26702;SDS011;14316;51.074;3.704;2023-07-29T12:39:32;3.63;;;1.63;;
26702;SDS011;14316;51.074;3.704;2023-07-29T12:42:00;3.28;;;1.70;;
26702;SDS011;14316;51.074;3.704;2023-07-29T12:44:31;3.05;;;1.58;;
26702;SDS011;14316;51.074;3.704;2023-07-29T12:46:58;1.67;;;1.57;;
26702;SDS011;14316;51.074;3.704;2023-07-29T12:49:28;2.38;;;1.40;;
26702;SDS011;14316;51.074;3.704;2023-07-29T12:51:55;1.85;;;1.55;;
26702;SDS011;14316;51.074;3.704;2023-07-29T12:54:24;2.05;;;1.60;;
26702;SDS011;14316;51.074;3.704;2023-07-29T12:56:50;1.80;;;1.30;;
26702;SDS011;14316;51.074;3.704;2023-07-29T12:59:16;1.67;;;1.50;;
26702;SDS011;14316;51.074;3.704;2023-07-29T13:01:42;2.47;;;1.65;;
26702;SDS011;14316;51.074;3.704;2023-07-29T13:04:08;3.53;;;1.70;;
26702;SDS011;14316;51.074;3.704;2023-07-29T13:06:35;2.17;;;1.73;;
26702;SDS011;14316;51.074;3.704;2023-07-29T13:09:00;1.88;;;1.50;;
26702;SDS011;14316;51.074;3.704;2023-07-29T13:11:26;3.03;;;1.80;;
26702;SDS011;14316;51.074;3.704;2023-07-29T13:13:52;2.60;;;2.05;;
26702;SDS011;14316;51.074;3.704;2023-07-29T13:16:18;2.95;;;1.60;;
26702;SDS011;14316;51.074;3.704;2023-07-29T13:18:44;1.55;;;1.45;;
26702;SDS011;14316;51.074;3.704;2023-07-29T13:21:09;2.05;;;1.80;;
26702;SDS011;14316;51.074;3.704;2023-07-29T13:23:35;1.38;;;1.27;;
26702;SDS011;14316;51.074;3.704;2023-07-29T13:26:01;2.30;;;1.55;;
26702;SDS011;14316;51.074;3.704;2023-07-29T13:28:27;1.25;;;1.17;;
26702;SDS011;14316;51.074;3.704;2023-07-29T13:30:53;1.92;;;1.55;;
26702;SDS011;14316;51.074;3.704;2023-07-29T13:33:18;2.85;;;1.92;;
26702;SDS011;14316;51.074;3.704;2023-07-29T13:35:44;41.70;;;4.60;;
26702;SDS011;14316;51.074;3.704;2023-07-29T13:38:10;2.20;;;1.73;;
26702;SDS011;14316;51.074;3.704;2023-07-29T13:40:36;4.57;;;3.85;;
26702;SDS011;14316;51.074;3.704;2023-07-29T13:43:02;6.32;;;3.63;;
26702;SDS011;14316;51.074;3.704;2023-07-29T13:45:28;4.78;;;3.75;;
26702;SDS011;14316;51.074;3.704;2023-07-29T13:47:54;5.57;;;4.30;;
26702;SDS011;14316;51.074;3.704;2023-07-29T13:50:20;3.67;;;3.38;;
26702;SDS011;14316;51.074;3.704;2023-07-29T13:52:46;4.22;;;3.85;;
26702;SDS011;14316;51.074;3.704;2023-07-29T13:55:11;6.05;;;5.30;;
26702;SDS011;14316;51.074;3.704;2023-07-29T13:57:38;5.85;;;5.18;;
26702;SDS011;14316;51.074;3.704;2023-07-29T14:00:07;5.45;;;4.95;;
26702;SDS011;14316;51.074;3.704;2023-07-29T14:02:33;4.20;;;3.80;;
26702;SDS011;14316;51.074;3.704;2023-07-29T14:04:59;6.10;;;3.67;;
26702;SDS011;14316;51.074;3.704;2023-07-29T14:07:25;2.95;;;2.67;;
26702;SDS011;14316;51.074;3.704;2023-07-29T14:09:51;1.90;;;1.70;;
26702;SDS011;14316;51.074;3.704;2023-07-29T14:12:16;2.05;;;1.60;;
26702;SDS011;14316;51.074;3.704;2023-07-29T14:14:42;1.33;;;1.23;;
26702;SDS011;14316;51.074;3.704;2023-07-29T14:17:08;1.40;;;1.30;;
26702;SDS011;14316;51.074;3.704;2023-07-29T14:19:35;1.55;;;1.30;;
26702;SDS011;14316;51.074;3.704;2023-07-29T14:22:02;2.40;;;1.05;;
26702;SDS011;14316;51.074;3.704;2023-07-29T14:24:28;1.27;;;1.08;;
26702;SDS011;14316;51.074;3.704;2023-07-29T14:26:54;1.45;;;1.10;;
26702;SDS011;14316;51.074;3.704;2023-07-29T14:29:19;2.63;;;1.23;;
26702;SDS011;14316;51.074;3.704;2023-07-29T14:31:46;1.08;;;0.98;;
26702;SDS011;14316;51.074;3.704;2023-07-29T14:34:11;1.48;;;1.05;;
26702;SDS011;14316;51.074;3.704;2023-07-29T14:36:37;1.48;;;0.98;;
26702;SDS011;14316;51.074;3.704;2023-07-29T14:39:03;1.10;;;1.05;;
26702;SDS011;14316;51.074;3.704;2023-07-29T14:41:29;2.15;;;1.13;;
26702;SDS011;14316;51.074;3.704;2023-07-29T14:43:55;2.65;;;1.10;;
26702;SDS011;14316;51.074;3.704;2023-07-29T14:46:21;1.27;;;1.10;;
26702;SDS011;14316;51.074;3.704;2023-07-29T14:48:47;1.10;;;1.00;;
26702;SDS011;14316;51.074;3.704;2023-07-29T14:51:13;1.13;;;0.93;;
26702;SDS011;14316;51.074;3.704;2023-07-29T14:53:39;2.70;;;1.00;;
26702;SDS011;14316;51.074;3.704;2023-07-29T14:56:06;1.13;;;1.02;;
26702;SDS011;14316;51.074;3.704;2023-07-29T14:58:32;0.98;;;0.98;;
26702;SDS011;14316;51.074;3.704;2023-07-29T15:00:58;0.95;;;0.90;;
26702;SDS011;14316;51.074;3.704;2023-07-29T15:03:23;0.85;;;0.85;;
26702;SDS011;14316;51.074;3.704;2023-07-29T15:05:49;1.10;;;1.00;;
26702;SDS011;14316;51.074;3.704;2023-07-29T15:08:16;1.42;;;1.00;;
26702;SDS011;14316;51.074;3.704;2023-07-29T15:10:45;1.27;;;0.93;;
26702;SDS011;14316;51.074;3.704;2023-07-29T15:13:14;1.55;;;1.10;;